sensor_id;sensor_type;location;lat;lon;timestamp;temperature;humidity
44223;DHT22;29895;48.804;9.386;2022-07-04T04:22:48;18.90;99.90
44223;DHT22;29895;48.804;9.386;2022-07-04T04:25:15;18.90;99.90
44223;DHT22;29895;48.804;9.386;2022-07-04T04:27:41;18.90;99.90
44223;DHT22;29895;48.804;9.386;2022-07-04T04:30:07;18.90;99.90
44223;DHT22;29895;48.804;9.386;2022-07-04T04:32:34;18.90;99.90
44223;DHT22;29895;48.804;9.386;2022-07-04T04:34:59;18.90;99.90
44223;DHT22;29895;48.804;9.386;2022-07-04T04:37:25;19.00;99.90
44223;DHT22;29895;48.804;9.386;2022-07-04T04:39:50;19.00;99.90
44223;DHT22;29895;48.804;9.386;2022-07-04T04:42:16;19.00;99.90
44223;DHT22;29895;48.804;9.386;2022-07-04T04:44:41;19.00;99.90
44223;DHT22;29895;48.804;9.386;2022-07-04T04:47:07;19.00;99.90
44223;DHT22;29895;48.804;9.386;2022-07-04T04:49:33;19.00;99.90
44223;DHT22;29895;48.804;9.386;2022-07-04T04:51:58;19.10;99.90
44223;DHT22;29895;48.804;9.386;2022-07-04T04:54:24;19.20;99.90
44223;DHT22;29895;48.804;9.386;2022-07-04T04:56:49;19.20;99.90
44223;DHT22;29895;48.804;9.386;2022-07-04T04:59:15;19.30;99.90
44223;DHT22;29895;48.804;9.386;2022-07-04T05:01:40;19.40;99.90
44223;DHT22;29895;48.804;9.386;2022-07-04T05:04:06;19.40;99.90
44223;DHT22;29895;48.804;9.386;2022-07-04T05:06:33;19.50;99.90
44223;DHT22;29895;48.804;9.386;2022-07-04T05:08:58;19.60;99.90
44223;DHT22;29895;48.804;9.386;2022-07-04T05:11:24;19.70;99.90
44223;DHT22;29895;48.804;9.386;2022-07-04T05:13:50;19.90;99.90
44223;DHT22;29895;48.804;9.386;2022-07-04T05:16:15;19.90;99.90
44223;DHT22;29895;48.804;9.386;2022-07-04T05:18:41;20.10;99.90
44223;DHT22;29895;48.804;9.386;2022-07-04T05:21:06;20.20;99.90
44223;DHT22;29895;48.804;9.386;2022-07-04T05:23:32;20.10;99.90
44223;DHT22;29895;48.804;9.386;2022-07-04T05:25:57;20.00;99.90
44223;DHT22;29895;48.804;9.386;2022-07-04T05:28:23;19.90;99.90
44223;DHT22;29895;48.804;9.386;2022-07-04T05:30:48;19.80;99.90
44223;DHT22;29895;48.804;9.386;2022-07-04T05:33:14;19.80;99.90
44223;DHT22;29895;48.804;9.386;2022-07-04T05:35:40;19.80;99.90
44223;DHT22;29895;48.804;9.386;2022-07-04T05:38:05;19.90;99.90
44223;DHT22;29895;48.804;9.386;2022-07-04T05:40:31;20.00;99.90
44223;DHT22;29895;48.804;9.386;2022-07-04T05:42:56;20.00;99.90
44223;DHT22;29895;48.804;9.386;2022-07-04T05:45:22;20.20;99.90
44223;DHT22;29895;48.804;9.386;2022-07-04T05:47:47;20.30;99.90
44223;DHT22;29895;48.804;9.386;2022-07-04T05:50:13;20.40;99.90
44223;DHT22;29895;48.804;9.386;2022-07-04T05:52:38;20.50;99.90
44223;DHT22;29895;48.804;9.386;2022-07-04T05:55:04;20.70;99.90
44223;DHT22;29895;48.804;9.386;2022-07-04T05:57:31;21.00;99.90
44223;DHT22;29895;48.804;9.386;2022-07-04T05:59:57;21.00;99.90
44223;DHT22;29895;48.804;9.386;2022-07-04T06:02:22;21.40;99.90
44223;DHT22;29895;48.804;9.386;2022-07-04T06:04:48;21.60;99.90
44223;DHT22;29895;48.804;9.386;2022-07-04T06:07:13;22.20;99.90
44223;DHT22;29895;48.804;9.386;2022-07-04T06:09:39;22.40;99.90
44223;DHT22;29895;48.804;9.386;2022-07-04T06:12:04;22.40;99.90
44223;DHT22;29895;48.804;9.386;2022-07-04T06:14:30;22.30;99.90
44223;DHT22;29895;48.804;9.386;2022-07-04T06:16:56;22.00;99.90
44223;DHT22;29895;48.804;9.386;2022-07-04T06:19:21;22.00;99.90
44223;DHT22;29895;48.804;9.386;2022-07-04T06:21:47;22.20;99.90
44223;DHT22;29895;48.804;9.386;2022-07-04T06:24:15;22.30;99.90
44223;DHT22;29895;48.804;9.386;2022-07-04T06:26:41;22.20;99.90
44223;DHT22;29895;48.804;9.386;2022-07-04T06:29:14;21.70;99.90
44223;DHT22;29895;48.804;9.386;2022-07-04T06:31:41;21.50;99.90
44223;DHT22;29895;48.804;9.386;2022-07-04T06:34:07;21.20;99.90
44223;DHT22;29895;48.804;9.386;2022-07-04T06:36:51;20.90;99.90
44223;DHT22;29895;48.804;9.386;2022-07-04T06:39:17;21.20;99.90
44223;DHT22;29895;48.804;9.386;2022-07-04T06:41:42;21.50;99.90
44223;DHT22;29895;48.804;9.386;2022-07-04T06:44:08;21.70;99.90
44223;DHT22;29895;48.804;9.386;2022-07-04T06:46:33;22.20;99.90
44223;DHT22;29895;48.804;9.386;2022-07-04T06:48:59;22.60;99.90
44223;DHT22;29895;48.804;9.386;2022-07-04T06:51:24;22.80;99.90
44223;DHT22;29895;48.804;9.386;2022-07-04T06:53:50;23.30;99.90
44223;DHT22;29895;48.804;9.386;2022-07-04T06:56:16;23.30;99.90
44223;DHT22;29895;48.804;9.386;2022-07-04T06:58:41;22.90;99.90
44223;DHT22;29895;48.804;9.386;2022-07-04T07:01:07;22.90;99.90
44223;DHT22;29895;48.804;9.386;2022-07-04T07:03:32;23.30;99.90
44223;DHT22;29895;48.804;9.386;2022-07-04T07:05:58;23.30;99.90
44223;DHT22;29895;48.804;9.386;2022-07-04T07:08:24;23.20;99.90
44223;DHT22;29895;48.804;9.386;2022-07-04T07:10:50;23.40;99.90
44223;DHT22;29895;48.804;9.386;2022-07-04T07:13:16;23.50;99.90
44223;DHT22;29895;48.804;9.386;2022-07-04T07:15:42;23.20;99.90
44223;DHT22;29895;48.804;9.386;2022-07-04T07:18:07;23.30;99.90
44223;DHT22;29895;48.804;9.386;2022-07-04T07:20:33;23.40;99.90
44223;DHT22;29895;48.804;9.386;2022-07-04T07:23:01;23.60;99.90
44223;DHT22;29895;48.804;9.386;2022-07-04T07:25:27;23.50;99.90
44223;DHT22;29895;48.804;9.386;2022-07-04T07:27:52;23.50;99.90
44223;DHT22;29895;48.804;9.386;2022-07-04T07:30:18;23.60;99.90
44223;DHT22;29895;48.804;9.386;2022-07-04T07:32:43;23.90;99.90
44223;DHT22;29895;48.804;9.386;2022-07-04T07:35:09;23.90;99.90
44223;DHT22;29895;48.804;9.386;2022-07-04T07:37:34;23.90;99.90
44223;DHT22;29895;48.804;9.386;2022-07-04T07:40:00;23.80;99.90
44223;DHT22;29895;48.804;9.386;2022-07-04T07:42:26;23.60;99.90
44223;DHT22;29895;48.804;9.386;2022-07-04T07:44:51;23.60;99.90
44223;DHT22;29895;48.804;9.386;2022-07-04T07:47:17;23.60;99.90
44223;DHT22;29895;48.804;9.386;2022-07-04T07:49:42;23.50;99.90
44223;DHT22;29895;48.804;9.386;2022-07-04T07:52:08;23.20;99.90
44223;DHT22;29895;48.804;9.386;2022-07-04T07:54:34;22.70;99.90
44223;DHT22;29895;48.804;9.386;2022-07-04T07:56:59;22.80;99.90
44223;DHT22;29895;48.804;9.386;2022-07-04T07:59:25;22.80;99.90
44223;DHT22;29895;48.804;9.386;2022-07-04T08:01:50;22.80;99.90
44223;DHT22;29895;48.804;9.386;2022-07-04T08:04:17;23.00;99.90
44223;DHT22;29895;48.804;9.386;2022-07-04T08:07:03;22.90;99.90
44223;DHT22;29895;48.804;9.386;2022-07-04T08:09:29;23.00;99.90
44223;DHT22;29895;48.804;9.386;2022-07-04T08:11:54;23.30;99.90
44223;DHT22;29895;48.804;9.386;2022-07-04T08:14:20;23.50;99.90
44223;DHT22;29895;48.804;9.386;2022-07-04T08:16:48;23.50;99.90
44223;DHT22;29895;48.804;9.386;2022-07-04T08:19:14;23.80;99.90
44223;DHT22;29895;48.804;9.386;2022-07-04T08:21:39;24.10;99.90
44223;DHT22;29895;48.804;9.386;2022-07-04T08:24:05;24.00;99.90
44223;DHT22;29895;48.804;9.386;2022-07-04T08:26:32;23.80;99.90
44223;DHT22;29895;48.804;9.386;2022-07-04T08:28:58;23.50;99.90
44223;DHT22;29895;48.804;9.386;2022-07-04T08:31:25;23.40;99.90
44223;DHT22;29895;48.804;9.386;2022-07-04T08:33:51;23.30;99.90
44223;DHT22;29895;48.804;9.386;2022-07-04T08:36:16;23.50;99.90
44223;DHT22;29895;48.804;9.386;2022-07-04T08:38:42;23.50;99.90
44223;DHT22;29895;48.804;9.386;2022-07-04T08:41:07;23.40;99.90
44223;DHT22;29895;48.804;9.386;2022-07-04T08:43:33;23.30;99.90
44223;DHT22;29895;48.804;9.386;2022-07-04T08:46:00;23.20;99.90
44223;DHT22;29895;48.804;9.386;2022-07-04T08:48:30;23.20;99.90
44223;DHT22;29895;48.804;9.386;2022-07-04T08:50:56;23.10;99.90
44223;DHT22;29895;48.804;9.386;2022-07-04T08:53:28;22.90;99.90
44223;DHT22;29895;48.804;9.386;2022-07-04T08:55:55;22.80;99.90
44223;DHT22;29895;48.804;9.386;2022-07-04T08:58:39;22.80;99.90
44223;DHT22;29895;48.804;9.386;2022-07-04T09:01:06;22.90;99.90
44223;DHT22;29895;48.804;9.386;2022-07-04T09:03:32;23.00;99.90
44223;DHT22;29895;48.804;9.386;2022-07-04T09:05:58;23.10;99.90
44223;DHT22;29895;48.804;9.386;2022-07-04T09:08:24;23.30;99.90
44223;DHT22;29895;48.804;9.386;2022-07-04T09:10:51;23.60;99.90
44223;DHT22;29895;48.804;9.386;2022-07-04T09:13:17;23.80;99.90
44223;DHT22;29895;48.804;9.386;2022-07-04T09:15:44;23.50;99.90
44223;DHT22;29895;48.804;9.386;2022-07-04T09:18:27;23.40;99.90
44223;DHT22;29895;48.804;9.386;2022-07-04T09:20:54;23.70;99.90
44223;DHT22;29895;48.804;9.386;2022-07-04T09:23:22;23.90;99.90
44223;DHT22;29895;48.804;9.386;2022-07-04T09:25:49;24.20;99.90
44223;DHT22;29895;48.804;9.386;2022-07-04T09:28:27;24.40;99.90
44223;DHT22;29895;48.804;9.386;2022-07-04T09:30:53;24.70;99.90
44223;DHT22;29895;48.804;9.386;2022-07-04T09:33:19;25.20;99.60
44223;DHT22;29895;48.804;9.386;2022-07-04T09:35:46;25.70;99.60
44223;DHT22;29895;48.804;9.386;2022-07-04T09:38:12;25.90;98.40
44223;DHT22;29895;48.804;9.386;2022-07-04T09:40:46;26.10;97.90
44223;DHT22;29895;48.804;9.386;2022-07-04T09:43:36;26.60;97.50
44223;DHT22;29895;48.804;9.386;2022-07-04T09:46:01;27.30;96.50
44223;DHT22;29895;48.804;9.386;2022-07-04T09:48:47;27.70;96.20
44223;DHT22;29895;48.804;9.386;2022-07-04T09:51:14;27.50;96.20
44223;DHT22;29895;48.804;9.386;2022-07-04T09:53:39;27.30;96.00
44223;DHT22;29895;48.804;9.386;2022-07-04T09:56:05;27.30;95.70
44223;DHT22;29895;48.804;9.386;2022-07-04T10:01:35;27.50;95.20
44223;DHT22;29895;48.804;9.386;2022-07-04T10:07:31;26.90;95.30
44223;DHT22;29895;48.804;9.386;2022-07-04T10:16:30;27.80;93.80
44223;DHT22;29895;48.804;9.386;2022-07-04T10:22:14;28.00;94.00
44223;DHT22;29895;48.804;9.386;2022-07-04T11:07:03;29.90;90.30
44223;DHT22;29895;48.804;9.386;2022-07-04T11:09:28;30.50;89.80
44223;DHT22;29895;48.804;9.386;2022-07-04T11:17:27;30.20;88.30
44223;DHT22;29895;48.804;9.386;2022-07-04T11:20:05;29.20;90.10
44223;DHT22;29895;48.804;9.386;2022-07-04T11:26:02;28.80;90.80
44223;DHT22;29895;48.804;9.386;2022-07-04T11:31:43;30.20;89.00
44223;DHT22;29895;48.804;9.386;2022-07-04T11:34:09;31.10;87.30
44223;DHT22;29895;48.804;9.386;2022-07-04T11:36:34;31.30;86.40
44223;DHT22;29895;48.804;9.386;2022-07-04T11:39:01;31.80;85.80
44223;DHT22;29895;48.804;9.386;2022-07-04T11:41:32;32.30;84.50
44223;DHT22;29895;48.804;9.386;2022-07-04T13:06:31;31.90;83.50
44223;DHT22;29895;48.804;9.386;2022-07-04T13:20:47;31.60;82.70
44223;DHT22;29895;48.804;9.386;2022-07-04T13:23:13;32.60;82.10
44223;DHT22;29895;48.804;9.386;2022-07-04T13:25:38;33.40;80.80
44223;DHT22;29895;48.804;9.386;2022-07-04T13:28:04;33.60;80.00
44223;DHT22;29895;48.804;9.386;2022-07-04T16:21:51;26.60;88.30
44223;DHT22;29895;48.804;9.386;2022-07-04T16:24:18;26.50;88.40
44223;DHT22;29895;48.804;9.386;2022-07-04T16:26:44;26.40;88.30
44223;DHT22;29895;48.804;9.386;2022-07-04T16:29:10;26.40;88.60
44223;DHT22;29895;48.804;9.386;2022-07-04T16:31:38;26.40;88.80
44223;DHT22;29895;48.804;9.386;2022-07-04T16:34:03;26.30;87.80
44223;DHT22;29895;48.804;9.386;2022-07-04T16:36:29;26.20;87.30
44223;DHT22;29895;48.804;9.386;2022-07-04T16:38:55;26.30;87.40
44223;DHT22;29895;48.804;9.386;2022-07-04T16:41:20;26.40;87.10
44223;DHT22;29895;48.804;9.386;2022-07-04T16:43:47;26.50;86.80
44223;DHT22;29895;48.804;9.386;2022-07-04T16:46:13;26.50;86.90
44223;DHT22;29895;48.804;9.386;2022-07-04T16:48:38;26.60;86.70
44223;DHT22;29895;48.804;9.386;2022-07-04T16:51:04;26.70;86.00
44223;DHT22;29895;48.804;9.386;2022-07-04T16:53:30;26.70;85.80
44223;DHT22;29895;48.804;9.386;2022-07-04T16:55:56;26.70;85.90
44223;DHT22;29895;48.804;9.386;2022-07-04T16:58:22;26.60;85.50
44223;DHT22;29895;48.804;9.386;2022-07-04T17:00:49;26.60;84.10
44223;DHT22;29895;48.804;9.386;2022-07-04T17:03:17;26.60;83.80
44223;DHT22;29895;48.804;9.386;2022-07-04T17:05:43;26.70;84.40
44223;DHT22;29895;48.804;9.386;2022-07-04T17:08:09;26.70;83.40
44223;DHT22;29895;48.804;9.386;2022-07-04T17:10:35;26.50;82.00
44223;DHT22;29895;48.804;9.386;2022-07-04T17:13:02;26.40;81.70
44223;DHT22;29895;48.804;9.386;2022-07-04T17:15:28;26.40;82.90
44223;DHT22;29895;48.804;9.386;2022-07-04T17:17:54;26.30;80.80
44223;DHT22;29895;48.804;9.386;2022-07-04T17:20:20;26.10;81.40
44223;DHT22;29895;48.804;9.386;2022-07-04T17:22:45;26.20;82.00
44223;DHT22;29895;48.804;9.386;2022-07-04T17:25:11;26.20;81.20
44223;DHT22;29895;48.804;9.386;2022-07-04T17:27:37;26.20;81.30
44223;DHT22;29895;48.804;9.386;2022-07-04T17:30:02;26.30;81.30
44223;DHT22;29895;48.804;9.386;2022-07-04T17:32:28;26.40;80.80
44223;DHT22;29895;48.804;9.386;2022-07-04T17:34:54;26.40;80.30
44223;DHT22;29895;48.804;9.386;2022-07-04T17:37:20;26.40;80.10
44223;DHT22;29895;48.804;9.386;2022-07-04T17:39:46;26.30;80.40
44223;DHT22;29895;48.804;9.386;2022-07-04T17:42:11;26.40;80.20
44223;DHT22;29895;48.804;9.386;2022-07-04T17:44:39;26.40;80.40
44223;DHT22;29895;48.804;9.386;2022-07-04T17:47:05;26.30;80.00
44223;DHT22;29895;48.804;9.386;2022-07-04T17:49:30;26.00;79.80
44223;DHT22;29895;48.804;9.386;2022-07-04T17:51:56;25.90;79.60
44223;DHT22;29895;48.804;9.386;2022-07-04T17:54:23;25.80;80.30
44223;DHT22;29895;48.804;9.386;2022-07-04T17:56:51;25.70;79.40
44223;DHT22;29895;48.804;9.386;2022-07-04T17:59:17;25.60;79.20
44223;DHT22;29895;48.804;9.386;2022-07-04T18:01:42;25.50;80.10
44223;DHT22;29895;48.804;9.386;2022-07-04T18:04:08;25.40;80.50
44223;DHT22;29895;48.804;9.386;2022-07-04T18:06:36;25.40;81.30
44223;DHT22;29895;48.804;9.386;2022-07-04T18:09:05;25.40;81.00
44223;DHT22;29895;48.804;9.386;2022-07-04T18:11:32;25.40;81.30
44223;DHT22;29895;48.804;9.386;2022-07-04T18:13:59;25.30;81.20
44223;DHT22;29895;48.804;9.386;2022-07-04T18:16:24;25.20;81.90
44223;DHT22;29895;48.804;9.386;2022-07-04T18:18:50;25.20;82.00
44223;DHT22;29895;48.804;9.386;2022-07-04T18:21:16;25.20;81.80
44223;DHT22;29895;48.804;9.386;2022-07-04T18:23:42;25.20;82.10
44223;DHT22;29895;48.804;9.386;2022-07-04T18:26:09;25.10;82.70
44223;DHT22;29895;48.804;9.386;2022-07-04T18:28:37;25.10;81.80
44223;DHT22;29895;48.804;9.386;2022-07-04T18:31:06;25.10;82.00
44223;DHT22;29895;48.804;9.386;2022-07-04T18:33:33;25.00;82.40
44223;DHT22;29895;48.804;9.386;2022-07-04T18:36:00;25.00;82.50
44223;DHT22;29895;48.804;9.386;2022-07-04T18:38:27;25.00;83.20
44223;DHT22;29895;48.804;9.386;2022-07-04T18:40:54;24.90;83.70
44223;DHT22;29895;48.804;9.386;2022-07-04T18:43:46;24.80;83.00
44223;DHT22;29895;48.804;9.386;2022-07-04T18:46:11;24.80;83.50
44223;DHT22;29895;48.804;9.386;2022-07-04T18:48:38;24.80;84.00
44223;DHT22;29895;48.804;9.386;2022-07-04T18:51:05;24.70;84.60
44223;DHT22;29895;48.804;9.386;2022-07-04T18:53:32;24.60;84.40
44223;DHT22;29895;48.804;9.386;2022-07-04T18:55:58;24.60;84.50
44223;DHT22;29895;48.804;9.386;2022-07-04T18:58:24;24.60;85.60
44223;DHT22;29895;48.804;9.386;2022-07-04T19:00:53;24.50;85.30
44223;DHT22;29895;48.804;9.386;2022-07-04T19:03:18;24.40;85.00
44223;DHT22;29895;48.804;9.386;2022-07-04T19:05:44;24.40;86.20
44223;DHT22;29895;48.804;9.386;2022-07-04T19:08:10;24.30;86.60
44223;DHT22;29895;48.804;9.386;2022-07-04T19:10:35;24.30;86.90
44223;DHT22;29895;48.804;9.386;2022-07-04T19:13:02;24.20;88.50
44223;DHT22;29895;48.804;9.386;2022-07-04T19:15:28;24.20;88.90
44223;DHT22;29895;48.804;9.386;2022-07-04T19:17:54;24.10;88.30
44223;DHT22;29895;48.804;9.386;2022-07-04T19:20:20;24.00;89.50
44223;DHT22;29895;48.804;9.386;2022-07-04T19:22:48;23.90;89.30
44223;DHT22;29895;48.804;9.386;2022-07-04T19:25:15;23.90;89.90
44223;DHT22;29895;48.804;9.386;2022-07-04T19:27:42;23.80;89.90
44223;DHT22;29895;48.804;9.386;2022-07-04T19:30:08;23.70;90.20
44223;DHT22;29895;48.804;9.386;2022-07-04T19:32:34;23.70;90.20
44223;DHT22;29895;48.804;9.386;2022-07-04T19:35:00;23.60;90.60
44223;DHT22;29895;48.804;9.386;2022-07-04T19:37:26;23.50;90.60
44223;DHT22;29895;48.804;9.386;2022-07-04T19:39:51;23.50;90.70
44223;DHT22;29895;48.804;9.386;2022-07-04T19:42:21;23.50;91.00
44223;DHT22;29895;48.804;9.386;2022-07-04T19:44:49;23.50;91.70
44223;DHT22;29895;48.804;9.386;2022-07-04T19:47:15;23.40;91.90
44223;DHT22;29895;48.804;9.386;2022-07-04T19:49:44;23.30;92.30
44223;DHT22;29895;48.804;9.386;2022-07-04T19:52:11;23.10;92.90
44223;DHT22;29895;48.804;9.386;2022-07-04T19:54:58;23.00;93.80
44223;DHT22;29895;48.804;9.386;2022-07-04T19:57:26;22.90;94.90
44223;DHT22;29895;48.804;9.386;2022-07-04T19:59:52;22.70;95.20
44223;DHT22;29895;48.804;9.386;2022-07-04T20:02:18;22.50;95.20
44223;DHT22;29895;48.804;9.386;2022-07-04T20:04:44;22.40;95.30
44223;DHT22;29895;48.804;9.386;2022-07-04T20:07:09;22.30;95.30
44223;DHT22;29895;48.804;9.386;2022-07-04T20:09:36;22.10;94.90
44223;DHT22;29895;48.804;9.386;2022-07-04T20:12:05;22.00;95.20
